createdAt,value
2018-08-17T00:02:31.916Z,71.79
2018-08-17T00:05:03.945Z,71.67
2018-08-17T00:07:34.723Z,71.44
2018-08-17T00:12:48.002Z,71.71
2018-08-17T00:15:19.605Z,71.41
2018-08-17T00:17:51.648Z,71.62
2018-08-17T00:20:23.144Z,72.25
2018-08-17T00:22:54.840Z,71.78
2018-08-17T00:25:26.168Z,71.79
2018-08-17T00:28:01.423Z,71.13
2018-08-17T00:30:33.951Z,71.37
2018-08-17T00:33:07.289Z,71.61
2018-08-17T00:35:37.203Z,71.78
2018-08-17T00:38:07.202Z,71.54
2018-08-17T00:40:37.173Z,71.65
2018-08-17T00:43:14.806Z,72.08
2018-08-17T00:45:46.369Z,71.79
2018-08-17T00:48:16.319Z,71.58
2018-08-17T00:50:46.376Z,72.12
2018-08-17T00:53:17.244Z,72.10
2018-08-17T00:55:47.355Z,71.98
2018-08-17T00:58:18.088Z,72.22
2018-08-17T01:00:48.601Z,72.34
2018-08-17T01:03:19.256Z,72.15
2018-08-17T01:05:49.291Z,72.04
2018-08-17T01:08:19.572Z,72.34
2018-08-17T01:10:50.773Z,71.89
2018-08-17T01:13:22.411Z,71.97
2018-08-17T01:15:54.649Z,72.30
2018-08-17T01:18:24.757Z,72.44
2018-08-17T01:20:59.723Z,72.04
2018-08-17T01:23:29.314Z,72.29
2018-08-17T01:26:00.238Z,71.87
2018-08-17T01:28:32.648Z,72.15
2018-08-17T01:31:17.080Z,71.85
2018-08-17T01:33:47.137Z,71.64
2018-08-17T01:36:17.782Z,71.55
2018-08-17T01:38:48.171Z,71.58
2018-08-17T01:41:18.903Z,71.53
2018-08-17T01:43:49.540Z,71.54
2018-08-17T01:46:20.001Z,71.53
2018-08-17T01:48:51.734Z,71.17
2018-08-17T01:51:22.484Z,71.06
2018-08-17T01:53:58.095Z,70.76
2018-08-17T01:56:27.988Z,70.19
2018-08-17T01:58:57.915Z,70.07
2018-08-17T02:06:45.018Z,69.70
2018-08-17T02:09:16.088Z,69.93
2018-08-17T02:11:46.062Z,69.69
2018-08-17T02:14:16.968Z,69.52
2018-08-17T02:16:47.598Z,69.20
2018-08-17T02:19:19.296Z,69.63
2018-08-17T02:21:58.105Z,69.76
2018-08-17T02:24:28.619Z,70.16
2018-08-17T02:26:58.643Z,69.54
2018-08-17T02:29:30.638Z,69.29
2018-08-17T02:32:02.160Z,69.34
2018-08-17T02:34:31.971Z,70.57
2018-08-17T02:37:03.421Z,70.62
2018-08-17T02:39:33.651Z,70.72
2018-08-17T02:42:09.402Z,71.57
2018-08-17T02:44:40.033Z,71.82
2018-08-17T02:47:09.971Z,71.96
2018-08-17T02:49:40.100Z,71.96
2018-08-17T02:52:11.409Z,72.27
2018-08-17T02:54:41.307Z,72.60
2018-08-17T02:57:15.950Z,72.53
2018-08-17T02:59:48.696Z,72.45
2018-08-17T03:04:53.545Z,72.04
2018-08-17T03:07:23.359Z,71.99
2018-08-17T03:09:53.980Z,72.03
2018-08-17T03:12:25.608Z,72.27
2018-08-17T03:14:55.623Z,72.67
2018-08-17T03:17:25.336Z,72.41
2018-08-17T03:19:57.323Z,72.57
2018-08-17T03:22:27.309Z,72.66
2018-08-17T03:24:57.632Z,73.37
2018-08-17T03:27:29.072Z,73.22
2018-08-17T03:30:02.513Z,73.64
2018-08-17T03:32:32.347Z,73.52
2018-08-17T03:35:02.333Z,72.75
2018-08-17T03:37:35.718Z,73.19
2018-08-17T03:40:05.942Z,72.77
2018-08-17T03:42:36.049Z,72.62
2018-08-17T03:45:07.808Z,72.77
2018-08-17T03:47:40.310Z,73.13
2018-08-17T03:50:10.359Z,72.83
2018-08-17T03:52:40.217Z,73.09
2018-08-17T03:55:10.577Z,72.80
2018-08-17T03:57:46.699Z,72.48
2018-08-17T04:00:17.351Z,72.82
2018-08-17T04:02:48.736Z,72.91
2018-08-17T04:05:18.747Z,72.90
2018-08-17T04:07:48.634Z,72.42
2018-08-17T04:10:18.520Z,72.44
2018-08-17T04:12:48.757Z,72.57
2018-08-17T04:15:18.607Z,71.97
2018-08-17T04:17:48.923Z,72.52
2018-08-17T04:20:18.860Z,72.28
2018-08-17T04:22:48.991Z,72.40
2018-08-17T04:25:20.840Z,72.50
2018-08-17T04:27:54.597Z,72.14
2018-08-17T04:30:28.913Z,72.59
2018-08-17T04:33:07.325Z,72.02
2018-08-17T04:35:37.585Z,72.19
2018-08-17T04:38:07.765Z,72.46
2018-08-17T04:40:39.327Z,72.21
2018-08-17T04:43:09.680Z,72.72
2018-08-17T04:45:41.136Z,72.56
2018-08-17T04:48:14.162Z,71.93
2018-08-17T04:50:46.108Z,71.23
2018-08-17T04:56:26.191Z,70.93
2018-08-17T04:59:01.116Z,70.80
2018-08-17T05:02:20.067Z,70.85
2018-08-17T05:04:51.379Z,70.85
2018-08-17T05:07:25.722Z,70.91
2018-08-17T05:10:02.947Z,70.52
2018-08-17T05:12:32.790Z,70.44
2018-08-17T05:15:07.188Z,69.87
2018-08-17T05:17:38.021Z,69.64
2018-08-17T05:20:13.110Z,69.28
2018-08-17T05:22:44.190Z,68.85
2018-08-17T05:25:16.880Z,69.04
2018-08-17T05:30:35.001Z,68.22
2018-08-17T05:33:12.396Z,67.97
2018-08-17T05:35:52.331Z,67.66
2018-08-17T05:38:22.693Z,66.95
2018-08-17T05:40:57.027Z,66.27
2018-08-17T05:46:09.556Z,66.22
2018-08-17T05:48:41.109Z,66.22
2018-08-17T05:51:18.121Z,65.77
2018-08-17T05:53:55.138Z,65.99
2018-08-17T05:56:26.356Z,65.92
2018-08-17T05:58:56.482Z,65.71
2018-08-17T06:01:27.659Z,65.85
2018-08-17T06:03:58.009Z,65.16
2018-08-17T06:06:29.119Z,64.40
2018-08-17T06:09:00.730Z,64.96
2018-08-17T06:11:33.487Z,65.06
2018-08-17T06:14:07.070Z,64.90
2018-08-17T06:16:37.589Z,64.18
2018-08-17T06:19:07.804Z,64.64
2018-08-17T06:21:38.805Z,64.75
2018-08-17T06:24:08.715Z,64.85
2018-08-17T06:29:20.441Z,63.71
2018-08-17T06:31:50.650Z,63.83
2018-08-17T06:34:26.758Z,63.19
2018-08-17T06:36:56.462Z,62.28
2018-08-17T06:39:26.324Z,61.87
2018-08-17T06:41:56.526Z,60.84
2018-08-17T06:44:26.260Z,60.40
2018-08-17T06:46:56.242Z,59.73
2018-08-17T06:49:28.912Z,59.19
2018-08-17T06:52:00.567Z,58.39
2018-08-17T06:54:30.320Z,57.60
2018-08-17T06:57:01.108Z,57.42
2018-08-17T06:59:31.007Z,55.98
2018-08-17T07:02:00.979Z,51.36
2018-08-17T07:04:30.890Z,52.91
2018-08-17T07:07:00.655Z,51.37
2018-08-17T07:09:30.715Z,51.21
2018-08-17T07:12:00.319Z,48.01
2018-08-17T07:14:30.134Z,48.44
2018-08-17T07:17:00.616Z,48.07
2018-08-17T07:19:32.473Z,46.82
2018-08-17T07:22:02.882Z,46.99
2018-08-17T07:24:32.671Z,46.74
2018-08-17T07:27:03.381Z,45.83
2018-08-17T07:29:34.096Z,45.96
2018-08-17T07:32:03.940Z,46.65
2018-08-17T07:34:35.690Z,46.31
2018-08-17T07:37:06.258Z,46.33
2018-08-17T07:39:35.933Z,46.05
2018-08-17T07:42:06.556Z,44.94
2018-08-17T07:44:41.137Z,43.77
2018-08-17T07:47:10.813Z,43.59
2018-08-17T07:49:40.794Z,43.23
2018-08-17T07:52:13.594Z,43.25
2018-08-17T07:54:43.388Z,43.32
2018-08-17T07:57:13.378Z,43.48
2018-08-17T07:59:43.550Z,42.85
2018-08-17T08:02:13.354Z,41.57
2018-08-17T08:04:43.441Z,41.18
2018-08-17T08:07:14.090Z,41.65
2018-08-17T08:09:44.614Z,42.13
2018-08-17T08:12:15.365Z,39.93
2018-08-17T08:14:45.902Z,39.66
2018-08-17T08:20:55.079Z,35.66
2018-08-17T08:23:27.824Z,35.03
2018-08-17T08:26:01.583Z,34.43
2018-08-17T08:28:31.192Z,32.94
2018-08-17T08:31:01.363Z,32.08
2018-08-17T08:33:31.134Z,32.64
2018-08-17T08:36:02.072Z,30.92
2018-08-17T08:38:32.398Z,31.11
2018-08-17T08:41:02.335Z,30.83
2018-08-17T08:43:31.942Z,30.15
2018-08-17T08:47:11.379Z,28.95
2018-08-17T08:49:41.073Z,29.13
2018-08-17T08:52:10.742Z,28.68
2018-08-17T08:54:45.169Z,28.97
2018-08-17T08:57:15.427Z,26.92
2018-08-17T08:59:45.493Z,28.17
2018-08-17T09:02:16.275Z,28.65
2018-08-17T09:04:51.069Z,28.51
2018-08-17T09:07:22.270Z,27.40
2018-08-17T09:09:54.961Z,28.35
2018-08-17T09:13:38.151Z,28.67
2018-08-17T09:16:10.449Z,27.05
2018-08-17T09:18:50.236Z,26.34
2018-08-17T09:21:20.252Z,23.63
2018-08-17T09:23:55.921Z,24.39
2018-08-17T09:26:30.975Z,24.70
2018-08-17T09:31:56.465Z,24.23
2018-08-17T09:34:27.682Z,24.53
2018-08-17T09:37:01.400Z,24.47
2018-08-17T09:39:31.753Z,24.10
2018-08-17T09:45:04.774Z,24.43
2018-08-17T09:47:34.955Z,23.43
2018-08-17T09:50:22.746Z,24.83
2018-08-17T09:52:55.145Z,25.70
2018-08-17T09:55:24.750Z,26.31
2018-08-17T09:57:56.739Z,25.28
2018-08-17T10:00:31.484Z,26.30
2018-08-17T10:03:06.186Z,25.13
2018-08-17T10:05:38.777Z,24.79
2018-08-17T10:08:16.438Z,23.92
2018-08-17T10:10:46.270Z,25.43
2018-08-17T10:13:16.710Z,24.02
2018-08-17T10:15:47.034Z,25.19
2018-08-17T10:20:57.023Z,26.94
2018-08-17T10:23:28.785Z,27.40
2018-08-17T10:26:09.076Z,27.01
2018-08-17T10:28:38.858Z,27.79
2018-08-17T10:31:09.894Z,27.58
2018-08-17T10:34:07.640Z,28.36
2018-08-17T10:36:48.599Z,30.30
2018-08-17T10:39:18.850Z,30.99
2018-08-17T10:42:57.068Z,31.01
2018-08-17T10:45:27.611Z,31.80
2018-08-17T10:47:58.734Z,31.63
2018-08-17T10:50:29.712Z,30.78
2018-08-17T10:53:00.547Z,31.41
2018-08-17T10:55:39.851Z,31.70
2018-08-17T10:58:12.324Z,31.68
2018-08-17T11:00:43.353Z,30.80
2018-08-17T11:03:13.475Z,29.23
2018-08-17T11:05:43.714Z,29.25
2018-08-17T11:08:13.662Z,30.43
2018-08-17T11:10:43.493Z,29.29
2018-08-17T11:13:14.121Z,30.12
2018-08-17T11:15:44.335Z,30.44
2018-08-17T11:18:14.575Z,31.04
2018-08-17T11:20:46.242Z,31.27
2018-08-17T11:23:17.011Z,31.39
2018-08-17T11:25:51.602Z,32.37
2018-08-17T11:28:23.680Z,33.12
2018-08-17T11:30:53.825Z,33.04
2018-08-17T11:33:27.990Z,33.30
2018-08-17T11:35:58.347Z,33.74
2018-08-17T11:38:31.534Z,33.39
2018-08-17T11:41:01.150Z,32.89
2018-08-17T11:43:52.238Z,33.54
2018-08-17T11:46:25.363Z,33.32
2018-08-17T11:48:55.255Z,33.99
2018-08-17T11:51:24.881Z,34.08
2018-08-17T11:53:54.569Z,34.25
2018-08-17T11:56:24.206Z,33.28
2018-08-17T11:58:53.879Z,33.48
2018-08-17T12:01:29.116Z,33.78
2018-08-17T12:03:58.785Z,34.09
2018-08-17T12:06:29.382Z,34.37
2018-08-17T12:08:58.957Z,34.59
2018-08-17T12:11:28.530Z,33.51
2018-08-17T12:13:58.106Z,32.98
2018-08-17T12:16:29.589Z,32.40
2018-08-17T12:18:59.939Z,31.51
2018-08-17T12:21:30.017Z,33.74
2018-08-17T12:24:06.012Z,31.87
2018-08-17T12:29:30.194Z,31.80
2018-08-17T12:34:37.887Z,32.50
2018-08-17T12:37:25.852Z,31.81
2018-08-17T12:39:55.777Z,31.56
2018-08-17T12:45:19.411Z,31.22
2018-08-17T12:47:50.291Z,31.53
2018-08-17T12:50:20.012Z,31.32
2018-08-17T12:52:52.154Z,30.57
2018-08-17T12:55:23.831Z,32.97
2018-08-17T12:57:54.728Z,32.41
2018-08-17T13:00:25.415Z,30.95
2018-08-17T13:02:55.704Z,32.21
2018-08-17T13:05:26.848Z,29.73
2018-08-17T13:10:42.289Z,29.89
2018-08-17T13:13:22.710Z,29.47
2018-08-17T13:18:33.316Z,30.11
2018-08-17T13:21:14.088Z,30.88
2018-08-17T13:23:43.985Z,29.54
2018-08-17T13:26:42.956Z,29.75
2018-08-17T13:29:14.157Z,27.75
2018-08-17T13:31:43.905Z,30.15
2018-08-17T13:34:18.471Z,26.27
2018-08-17T13:36:48.437Z,26.38
2018-08-17T13:39:18.727Z,26.24
2018-08-17T13:41:50.971Z,24.62
2018-08-17T13:44:25.306Z,22.17
2018-08-17T13:46:55.536Z,20.42
2018-08-17T13:49:26.085Z,21.98
2018-08-17T13:51:55.988Z,23.94
2018-08-17T13:54:25.904Z,25.77
2018-08-17T13:56:56.092Z,26.53
2018-08-17T13:59:26.085Z,27.17
2018-08-17T14:01:59.621Z,27.29
2018-08-17T14:04:29.497Z,28.03
2018-08-17T14:06:59.472Z,28.07
2018-08-17T14:09:30.893Z,28.62
2018-08-17T14:12:01.737Z,28.25
2018-08-17T14:14:35.972Z,29.48
2018-08-17T14:17:06.426Z,29.44
2018-08-17T14:26:13.708Z,32.46
2018-08-17T14:28:45.496Z,31.26
2018-08-17T14:31:17.500Z,32.28
2018-08-17T14:33:48.459Z,31.46
2018-08-17T14:36:19.194Z,32.71
2018-08-17T14:38:54.087Z,32.96
2018-08-17T14:41:26.870Z,32.13
2018-08-17T14:43:57.863Z,32.71
2018-08-17T14:46:39.563Z,32.47
2018-08-17T14:51:46.943Z,32.45
2018-08-17T14:54:26.711Z,32.53
2018-08-17T14:57:01.733Z,34.52
2018-08-17T14:59:32.666Z,36.41
2018-08-17T15:02:03.095Z,36.45
2018-08-17T15:05:35.575Z,37.48
2018-08-17T15:08:06.022Z,37.76
2018-08-17T15:10:36.528Z,38.43
2018-08-17T15:13:06.658Z,38.12
2018-08-17T15:15:36.765Z,38.55
2018-08-17T15:18:06.857Z,38.53
2018-08-17T15:20:36.800Z,39.12
2018-08-17T15:23:07.789Z,39.32
2018-08-17T15:25:38.989Z,39.54
2018-08-17T15:28:09.001Z,39.71
2018-08-17T15:30:40.517Z,39.92
2018-08-17T15:33:19.424Z,40.16
2018-08-17T15:35:49.662Z,40.27
2018-08-17T15:38:19.574Z,40.65
2018-08-17T15:40:49.769Z,40.68
2018-08-17T15:43:21.393Z,40.89
2018-08-17T15:45:51.576Z,41.40
2018-08-17T15:53:28.426Z,41.21
2018-08-17T15:55:58.492Z,41.90
2018-08-17T15:58:30.081Z,42.34
2018-08-17T16:01:03.044Z,41.37
2018-08-17T16:03:34.073Z,40.31
2018-08-17T16:06:13.997Z,39.83
2018-08-17T16:08:44.806Z,40.32
2018-08-17T16:11:15.025Z,39.92
2018-08-17T16:13:45.576Z,39.42
2018-08-17T16:16:15.830Z,39.41
2018-08-17T16:18:46.250Z,40.68
2018-08-17T16:21:16.327Z,40.61
2018-08-17T16:23:47.001Z,40.74
2018-08-17T16:26:17.079Z,41.51
2018-08-17T16:28:47.810Z,42.08
2018-08-17T16:31:18.970Z,41.51
2018-08-17T16:33:49.391Z,41.48
2018-08-17T16:36:19.980Z,42.19
2018-08-17T16:38:51.422Z,42.45
2018-08-17T16:41:22.468Z,42.76
2018-08-17T16:43:53.725Z,43.14
2018-08-17T16:46:24.172Z,43.20
2018-08-17T16:48:53.877Z,42.69
2018-08-17T16:54:21.736Z,43.62
2018-08-17T16:56:52.116Z,42.98
2018-08-17T16:59:22.408Z,43.06
2018-08-17T17:01:53.568Z,43.14
2018-08-17T17:04:23.999Z,43.62
2018-08-17T17:06:54.544Z,42.85
2018-08-17T17:12:02.987Z,43.77
2018-08-17T17:14:44.576Z,44.46
2018-08-17T17:17:16.742Z,44.47
2018-08-17T17:19:48.202Z,43.97
2018-08-17T17:22:20.080Z,44.51
2018-08-17T17:24:50.579Z,44.93
2018-08-17T17:27:21.602Z,45.10
2018-08-17T17:30:04.808Z,45.31
2018-08-17T17:32:34.954Z,45.73
2018-08-17T17:35:12.545Z,46.13
2018-08-17T17:37:45.572Z,46.81
2018-08-17T17:40:17.813Z,46.86
2018-08-17T17:42:48.852Z,46.88
2018-08-17T17:48:19.118Z,47.53
2018-08-17T17:50:50.253Z,47.60
2018-08-17T17:57:19.020Z,46.77
2018-08-17T18:00:01.579Z,47.18
2018-08-17T18:02:33.867Z,47.88
2018-08-17T18:11:08.696Z,46.00
2018-08-17T18:13:46.139Z,45.77
2018-08-17T18:16:17.281Z,45.59
2018-08-17T18:18:50.375Z,45.84
2018-08-17T18:21:24.782Z,46.85
2018-08-17T18:24:12.556Z,46.03
2018-08-17T18:30:40.570Z,46.47
2018-08-17T18:36:09.752Z,48.26
2018-08-17T18:44:26.486Z,49.69
2018-08-17T18:47:28.176Z,49.11
2018-08-17T18:53:13.486Z,49.13
2018-08-17T18:55:59.185Z,48.52
2018-08-17T18:59:02.404Z,48.30
2018-08-17T19:01:39.200Z,48.49
2018-08-17T19:04:10.368Z,48.15
2018-08-17T19:06:43.528Z,48.14
2018-08-17T19:09:14.740Z,47.93
2018-08-17T19:11:46.049Z,48.31
2018-08-17T19:14:22.948Z,48.21
2018-08-17T19:16:54.091Z,48.15
2018-08-17T19:19:25.203Z,48.30
2018-08-17T19:24:50.560Z,49.30
2018-08-17T19:30:03.753Z,49.09
2018-08-17T19:32:34.977Z,49.62
2018-08-17T19:35:05.940Z,48.99
2018-08-17T19:37:40.567Z,48.96
2018-08-17T19:40:10.928Z,48.84
2018-08-17T19:42:41.717Z,49.23
2018-08-17T19:48:00.602Z,49.73
2018-08-17T19:50:41.595Z,49.75
2018-08-17T19:53:11.708Z,49.77
2018-08-17T19:55:41.776Z,49.98
2018-08-17T19:58:15.599Z,50.32
2018-08-17T20:00:48.979Z,50.26
2018-08-17T20:03:25.550Z,50.56
2018-08-17T20:06:24.940Z,51.06
2018-08-17T20:08:54.918Z,50.82
2018-08-17T20:11:43.664Z,50.99
2018-08-17T20:14:19.993Z,51.33
2018-08-17T20:16:56.465Z,51.91
2018-08-17T20:19:45.271Z,51.71
2018-08-17T20:22:24.036Z,52.44
2018-08-17T20:27:34.176Z,52.83
2018-08-17T20:30:38.084Z,52.71
2018-08-17T20:33:22.039Z,52.86
2018-08-17T20:39:03.055Z,53.79
2018-08-17T20:41:41.917Z,54.14
2018-08-17T20:44:12.448Z,53.48
2018-08-17T20:46:50.856Z,53.78
2018-08-17T20:49:22.876Z,54.27
2018-08-17T20:52:08.297Z,54.40
2018-08-17T20:54:40.567Z,54.25
2018-08-17T20:57:23.010Z,54.32
2018-08-17T20:59:56.266Z,54.12
2018-08-17T21:02:27.861Z,54.40
2018-08-17T21:05:03.115Z,54.56
2018-08-17T21:07:34.983Z,54.68
2018-08-17T21:12:40.131Z,54.68
2018-08-17T21:15:15.965Z,55.50
2018-08-17T21:17:46.205Z,55.79
2018-08-17T21:20:17.652Z,56.12
2018-08-17T21:22:47.913Z,56.68
2018-08-17T21:25:18.002Z,56.69
2018-08-17T21:27:49.124Z,56.73
2018-08-17T21:30:20.906Z,56.94
2018-08-17T21:32:51.212Z,57.09
2018-08-17T21:35:26.953Z,57.68
2018-08-17T21:37:57.457Z,57.98
2018-08-17T21:40:29.156Z,58.20
2018-08-17T21:43:02.004Z,58.01
2018-08-17T21:45:33.647Z,58.76
2018-08-17T21:48:06.046Z,58.69
2018-08-17T21:50:51.184Z,58.60
2018-08-17T21:53:25.979Z,58.95
2018-08-17T21:55:57.459Z,59.19
2018-08-17T21:58:28.352Z,60.45
2018-08-17T22:01:00.355Z,60.50
2018-08-17T22:06:15.243Z,61.89
2018-08-17T22:08:51.567Z,62.83
2018-08-17T22:11:45.380Z,63.85
2018-08-17T22:16:54.133Z,63.62
2018-08-17T22:19:36.368Z,63.11
2018-08-17T22:22:07.513Z,64.06
2018-08-17T22:24:43.879Z,64.92
2018-08-17T22:29:56.402Z,63.71
2018-08-17T22:32:26.834Z,65.02
2018-08-17T22:34:58.686Z,63.82
2018-08-17T22:38:42.877Z,63.71
2018-08-17T22:41:13.914Z,64.12
2018-08-17T22:43:44.135Z,64.96
2018-08-17T22:46:15.729Z,65.98
2018-08-17T22:48:46.619Z,68.50
2018-08-17T22:51:17.764Z,68.65
2018-08-17T22:53:47.876Z,72.63
2018-08-17T22:56:18.005Z,76.99
2018-08-17T22:58:48.692Z,79.96
2018-08-17T23:01:20.332Z,81.17
2018-08-17T23:03:54.577Z,83.31
2018-08-17T23:06:26.532Z,84.25
2018-08-17T23:09:10.809Z,85.71
2018-08-17T23:11:41.327Z,85.61
2018-08-17T23:14:18.017Z,86.63
2018-08-17T23:16:48.122Z,85.54
2018-08-17T23:19:17.978Z,85.85
2018-08-17T23:21:47.701Z,86.54
2018-08-17T23:24:17.692Z,86.32
2018-08-17T23:26:50.841Z,86.46
2018-08-17T23:29:20.645Z,86.71
2018-08-17T23:31:50.255Z,85.71
2018-08-17T23:34:19.917Z,86.05
2018-08-17T23:36:50.329Z,86.02
2018-08-17T23:39:19.897Z,87.54
2018-08-17T23:41:50.107Z,88.96
2018-08-17T23:44:19.867Z,89.78
2018-08-17T23:46:49.727Z,90.04
2018-08-17T23:49:30.444Z,92.28
2018-08-17T23:52:00.567Z,93.31
2018-08-17T23:54:30.340Z,94.24
2018-08-17T23:57:00.489Z,94.71
2018-08-17T23:59:31.540Z,95.05
